»·PEaware :: DAL761 KPSP-KCRQ

DAL761 :: KPSP-KCRQ

FLIGHT INFORMATION

Flight Status: Arrived
Operator:
Delta Air Lines
More flights by this operator :: More flights under this callsign
Pilot: Bruce B. (293)
Aircraft: AÉROSPATIALE ATR-72
(AT72)
More flights by this aircraft type
Origin: KPSP Palm Springs Intl
United States
Destination: KCRQ McClellan-Palomar
United States
More flights between these airports :: More routes between these airports
Route: +TRM6 TRM JLI
File this flight plan on PilotEdge
Remarks: / V /
Altitude:
(Current/Filed)
14,000ft
Speed:
(Current/Filed)
220kts
Departed: 16-Jul-12 10:44 AM
Arrived: 16-Jul-12 11:13 AM
Distance/Time
Traveled:
57nm/0:28
Distance/Time
To Go:
Arrived

Flight Plot

Page will automatically refresh every two minutes.


Map Options




Map Legend


Flown Route
Filed Route
Departure Airport
Arrival Airport
Navaid (VOR, NDB)
Fix

Horizontal Profiles

Position Reports

Time Latitude Longitude Heading Altitude Ground
Speed
16-Jul-12 09:55 33.823374 -116.507123 178 483ft 0kts
16-Jul-12 09:56 33.823374 -116.507123 178 483ft 0kts
16-Jul-12 09:57 33.823374 -116.507123 178 483ft 0kts
16-Jul-12 09:58 33.823374 -116.507123 178 483ft 0kts
16-Jul-12 09:59 33.823374 -116.507123 178 483ft 0kts
16-Jul-12 10:00 33.823374 -116.507123 178 483ft 0kts
16-Jul-12 10:01 33.823374 -116.507123 178 483ft 0kts
16-Jul-12 10:02 33.823374 -116.507123 178 483ft 0kts
16-Jul-12 10:03 33.823374 -116.507123 178 483ft 0kts
16-Jul-12 10:04 33.823374 -116.507123 178 483ft 0kts
16-Jul-12 10:05 33.823374 -116.507123 178 483ft 0kts
16-Jul-12 10:06 33.823374 -116.507123 178 483ft 0kts
16-Jul-12 10:07 33.823374 -116.507123 178 483ft 0kts
16-Jul-12 10:08 33.823374 -116.507123 178 483ft 0kts
16-Jul-12 10:09 33.823374 -116.507123 178 483ft 0kts
16-Jul-12 10:10 33.823374 -116.507123 178 483ft 0kts
16-Jul-12 10:11 33.823374 -116.507123 178 483ft 0kts
16-Jul-12 10:12 33.823374 -116.507123 178 483ft 0kts
16-Jul-12 10:13 33.823374 -116.507123 178 483ft 0kts
16-Jul-12 10:14 33.823374 -116.507123 178 483ft 0kts
16-Jul-12 10:15 33.823374 -116.507123 178 483ft 0kts
16-Jul-12 10:16 33.823374 -116.507123 178 483ft 0kts
16-Jul-12 10:17 33.823374 -116.507123 178 483ft 0kts
16-Jul-12 10:18 33.823374 -116.507123 178 483ft 0kts
16-Jul-12 10:19 33.823792 -116.507138 178 483ft 2kts
16-Jul-12 10:20 33.823901 -116.507142 178 483ft 0kts
16-Jul-12 10:21 33.823901 -116.507142 178 483ft 0kts
16-Jul-12 10:22 33.823901 -116.507142 178 483ft 0kts
16-Jul-12 10:23 33.823901 -116.507142 178 483ft 0kts
16-Jul-12 10:24 33.823901 -116.507142 178 483ft 0kts
16-Jul-12 10:25 33.823901 -116.507142 178 483ft 0kts
16-Jul-12 10:26 33.823901 -116.507142 178 483ft 0kts
16-Jul-12 10:27 33.823901 -116.507142 178 483ft 0kts
16-Jul-12 10:28 33.823901 -116.507142 178 483ft 0kts
16-Jul-12 10:29 33.823901 -116.507142 178 483ft 0kts
16-Jul-12 10:30 33.823894 -116.507142 178 483ft 1kts
16-Jul-12 10:31 33.823709 -116.506914 104 483ft 0kts
16-Jul-12 10:32 33.823567 -116.506623 128 483ft 0kts
16-Jul-12 10:33 33.823260 -116.506160 127 483ft 13kts
16-Jul-12 10:34 33.822785 -116.504322 78 483ft 14kts
16-Jul-12 10:35 33.823044 -116.502744 73 483ft 0kts
16-Jul-12 10:36 33.823045 -116.502739 73 483ft 0kts
16-Jul-12 10:37 33.823046 -116.502734 73 483ft 0kts
16-Jul-12 10:38 33.823047 -116.502729 73 483ft 0kts
16-Jul-12 10:39 33.823049 -116.502723 73 483ft 0kts
16-Jul-12 10:40 33.823152 -116.502319 67 483ft 9kts
16-Jul-12 10:41 33.827492 -116.505757 324 483ft 93kts
16-Jul-12 10:42 33.855681 -116.530073 347 1804ft 133kts
16-Jul-12 10:43 33.859340 -116.491760 118 2982ft 166kts
16-Jul-12 10:44 33.844562 -116.438159 110 4791ft 164kts
16-Jul-12 10:45 33.833930 -116.384920 109 6403ft 174kts
16-Jul-12 10:46 33.803452 -116.335335 131 7713ft 181kts
16-Jul-12 10:47 33.764490 -116.292421 143 8893ft 195kts
16-Jul-12 10:48 33.718719 -116.248347 144 9644ft 217kts
16-Jul-12 10:49 33.670765 -116.201973 144 10548ft 221kts
16-Jul-12 10:50 33.617662 -116.175218 189 11452ft 212kts
16-Jul-12 10:51 33.567417 -116.211752 216 12358ft 213kts
16-Jul-12 10:52 33.520482 -116.254968 214 13258ft 212kts
16-Jul-12 10:53 33.472158 -116.297429 214 13943ft 222kts
16-Jul-12 10:54 33.419250 -116.343799 215 13996ft 243kts
16-Jul-12 10:55 33.363363 -116.392067 215 14026ft 249kts
16-Jul-12 10:56 33.307426 -116.440730 215 14033ft 246kts
16-Jul-12 10:57 33.252074 -116.488655 214 14085ft 244kts
16-Jul-12 10:58 33.197076 -116.536549 215 14139ft 242kts
16-Jul-12 10:59 33.147604 -116.588709 243 14160ft 239kts
16-Jul-12 11:00 33.142211 -116.670857 270 13181ft 269kts
16-Jul-12 11:01 33.147843 -116.758733 271 11176ft 261kts
16-Jul-12 11:02 33.153431 -116.844700 271 9172ft 257kts
16-Jul-12 11:03 33.158736 -116.929915 271 7162ft 255kts
16-Jul-12 11:04 33.163483 -117.014086 271 5159ft 250kts
16-Jul-12 11:05 33.159138 -117.091908 253 3592ft 221kts
16-Jul-12 11:06 33.147949 -117.159577 256 2332ft 194kts
16-Jul-12 11:07 33.138768 -117.215404 260 1267ft 154kts
16-Jul-12 11:08 33.132461 -117.253732 259 683ft 100kts
16-Jul-12 11:09 33.127408 -117.285385 262 337ft 50kts
16-Jul-12 11:10 33.126686 -117.287439 188 337ft 2kts
16-Jul-12 11:11 33.126274 -117.285664 76 337ft 23kts
16-Jul-12 11:12 33.126296 -117.279691 96 337ft 16kts
16-Jul-12 11:13 33.126311 -117.277341 80 337ft 0kts
16-Jul-12 11:14 33.126312 -117.277339 80 337ft 0kts
16-Jul-12 11:15 33.126312 -117.277338 80 337ft 0kts
16-Jul-12 11:16 33.126312 -117.277337 79 337ft 0kts
16-Jul-12 11:17 33.126312 -117.277336 79 337ft 0kts
16-Jul-12 11:18 33.126312 -117.277335 79 337ft 0kts
16-Jul-12 11:19 33.126312 -117.277335 79 337ft 0kts
16-Jul-12 11:20 33.126312 -117.277334 79 337ft 0kts
16-Jul-12 11:21 33.126312 -117.277333 79 337ft 0kts
16-Jul-12 11:22 33.126312 -117.277333 79 337ft 0kts
16-Jul-12 11:23 33.126313 -117.277333 79 337ft 0kts
16-Jul-12 11:24 33.126313 -117.277332 79 337ft 0kts

Navigation Log

Ident Type
Flight plan parsing failed, navigation log unavailable